LESTLETO

Guest
Details From LEST - Santiago
To LETO - Torrejon
Flight Number -
Tags decoded
Created
Modified
Stats Distance 265 nm / 492 km
Max Altitude 0 ft / 0 m
Waypoints 4
Social Downloads 0
Likes 0
Share VATSIM

Download

Looking for another format? Having issues loading an existing format? Contact us
Advertisement - Login to hide

Notes

Requested: LEST FORNO DESAT UN733 ZMR LETO Unmatched points: DESAT UN733

Route

LEST FORNO ZMR LETO

ID Type Via Altitude Latitude Longitude Leg Dist Tot Dist Heading (true) Name
O LEST APT - 0 ft / 0 m 42.89780˚ -8.41569˚ - 0 nm - Santiago
FORNO FIX - 0 ft / 0 m 42.46811˚ -7.48146˚ 48 nm 48 nm 122° / 122° -
ZMR VOR - 0 ft / 0 m 41.53018˚ -5.63970˚ 99 nm 148 nm 124° / 125° ZAMORA VOR-DME
O LETO APT - 0 ft / 0 m 40.49675˚ -3.44587˚ 117 nm 265 nm 121° / 123° Torrejon

Altitude Profile

Advertisement - Login to hide

Weather


0- 5 10 15 20 25 30 35+ Temperature / ° C

Clouds and Precipitation
Forecast for 2018-05-25 00:00 UTC. Updated 2 hours ago

Ground ~20,000 ft ~40,000 ft Winds

LEST

Details ICAO LEST (SCQ)
Name Santiago
Region Spain
Timezone Europe/Madrid (UTC+2.0)
Stats Elevation 1,169 ft / 356 m (AMSL)
Location 42.897797° -8.415691°
Runways 1
Magnetic Variation 2.312° W

METAR

LEST 250130Z VRB04KT 8000 NSC 13/13 Q1014 NOSIG

Decode

TAF

TAF LEST 242300Z 2500/2524 05006KT 9999 SCT015 SCT040 TX19/2514Z TN13/2505Z TEMPO 2500/2524 RA PROB40 TEMPO 2500/2524 3000 SHRA SCT030TCU PROB30 TEMPO 2500/2506 1500 BR BCFG BKN010 TEMPO 2511/2519 04015G27KT PROB40 TEMPO 2512/2520 TS SCT030CB

Decode

Departure Runways

ID Width Length Bearing (true) Bearing (mag) Surface Threshold Offset Overrun Length
17 148 ft / 45 m 10,509 ft / 3,203 m 166.04° 168.35° Asphalt 394 ft / 120 m 0 ft / 0 m
35 148 ft / 45 m 10,509 ft / 3,203 m 346.05° 348.36° Asphalt 0 ft / 0 m 197 ft / 60 m

LETO

Details ICAO LETO (TOJ)
Name Torrejon
Region Spain
Timezone Europe/Madrid (UTC+2.0)
Stats Elevation 2,025 ft / 617 m (AMSL)
Location 40.496746° -3.445870°
Runways 1
Magnetic Variation 0.600° W

METAR

LETO 250133Z 24019KT 6000 TSRA SCT015CB BKN023 14/13 Q1015 TEMPO TSRA FEW030CB

Decode

TAF

TAF LETO 242300Z 2500/2524 VRB05KT 9999 SCT045 TX21/2515Z TN12/2524Z TEMPO 2500/2503 12008KT TEMPO 2500/2515 3000 RA SHRA SCT030TCU FEW035CB PROB40 TEMPO 2500/2515 VRB25G35KT 2000 TS SHRA SCT030CB

Decode

Destination Runways

ID Width Length Bearing (true) Bearing (mag) Surface Threshold Offset Overrun Length
05 217 ft / 66 m 12,004 ft / 3,659 m 43.28° 43.88° Asphalt 0 ft / 0 m 2,739 ft / 835 m
23 217 ft / 66 m 12,004 ft / 3,659 m 223.30° 223.90° Asphalt 0 ft / 0 m 1,066 ft / 325 m

Approach Navaids

Runway Type Ident Frequency Range Bearing (true) Bearing (mag) Slope Elevation
23 Localiser ITJA 109.50 MHz 18 nm / 33 km 223.26° 223.86° - 2,025 ft / 617 m (AMSL)
23 Glidescope ITJA 109.50 MHz 10 nm / 19 km 223.29° 223.89° 3.00° 2,025 ft / 617 m (AMSL)
23 DME ITJA 109.50 MHz 18 nm / 33 km - - - 2,011 ft / 613 m (AMSL)

Popular Alternatives